createdAt,value
2023-03-23T12:02:45.782Z,13
2023-03-23T12:07:51.883Z,13
2023-03-23T12:12:57.787Z,12.9
2023-03-23T12:18:03.958Z,12.9
2023-03-23T12:23:10.060Z,12.9
2023-03-23T12:28:17.359Z,12.7
2023-03-23T12:33:22.388Z,12.5
2023-03-23T12:38:28.528Z,12.6
2023-03-23T12:43:34.901Z,12.1
2023-03-23T12:48:40.988Z,11.8
2023-03-23T12:53:46.928Z,11.7
2023-03-23T12:58:53.799Z,11.8
2023-03-23T13:04:00.389Z,12.1
2023-03-23T13:09:06.900Z,12.2
2023-03-23T13:14:11.521Z,12.4
2023-03-23T13:19:17.719Z,12.3
2023-03-23T13:24:23.845Z,12.7
2023-03-23T13:29:29.986Z,12.3
2023-03-23T13:34:36.108Z,12.3
2023-03-23T13:39:43.252Z,12.3
2023-03-23T13:44:48.474Z,11.8
2023-03-23T13:49:54.511Z,11.6
2023-03-23T13:55:00.681Z,12
2023-03-23T14:00:06.836Z,12.1
2023-03-23T14:05:13.099Z,11.4
2023-03-23T14:10:19.073Z,11.3
2023-03-23T14:15:25.241Z,11.6
2023-03-23T14:20:31.400Z,11.4
2023-03-23T14:25:37.473Z,11.4
2023-03-23T14:30:43.750Z,11.4
2023-03-23T14:35:53.089Z,10.6
2023-03-23T14:40:55.928Z,10.4
2023-03-23T14:46:02.049Z,10.3
2023-03-23T14:51:08.154Z,9.9
2023-03-23T14:56:14.389Z,9.7
2023-03-23T15:01:20.613Z,10
2023-03-23T15:06:26.611Z,10.4
2023-03-23T15:11:32.756Z,10.7
2023-03-23T15:16:38.882Z,10.5
2023-03-23T15:21:45.053Z,10.4
2023-03-23T15:26:51.206Z,10.3
2023-03-23T15:31:58.331Z,10.3
2023-03-23T15:37:08.977Z,10.1
2023-03-23T15:42:09.602Z,10.3
2023-03-23T15:47:15.769Z,10.1
2023-03-23T15:52:22.043Z,10.1
2023-03-23T15:57:28.048Z,10.1
2023-03-23T16:02:34.284Z,9.8
2023-03-23T16:07:40.339Z,9.4
2023-03-23T16:12:46.485Z,9.5
2023-03-23T16:17:52.764Z,9.4
2023-03-23T16:28:04.881Z,8.5
2023-03-23T16:33:11.097Z,8.6
2023-03-23T16:38:17.135Z,8.6
2023-03-23T16:43:23.318Z,7.9
2023-03-23T16:48:29.390Z,7.9
2023-03-23T16:53:35.588Z,7.9
2023-03-23T16:58:41.782Z,7.9
2023-03-23T17:03:48.014Z,7.8
2023-03-23T17:08:53.970Z,7.7
2023-03-23T17:14:00.235Z,7.2
2023-03-23T17:19:06.254Z,6.8
2023-03-23T17:24:12.427Z,6.6
2023-03-23T17:29:18.587Z,7.2
2023-03-23T17:34:24.692Z,6.5
2023-03-23T17:39:31.142Z,6.1
2023-03-23T17:44:37.189Z,5.9
2023-03-23T17:49:43.166Z,5.7
2023-03-23T17:54:49.245Z,5.7
2023-03-23T17:59:55.358Z,5.6
2023-03-23T18:05:01.572Z,5.6
2023-03-23T18:10:07.715Z,5.8
2023-03-23T18:15:13.966Z,5.6
2023-03-23T18:20:19.937Z,5.6
2023-03-23T18:25:26.154Z,5.4
2023-03-23T18:30:32.260Z,5.5
2023-03-23T18:35:38.376Z,5.4
2023-03-23T18:40:44.531Z,5.5
2023-03-23T18:45:50.672Z,5.7
2023-03-23T18:50:56.801Z,5.7
2023-03-23T18:56:02.952Z,5.8
2023-03-23T19:01:09.094Z,5.8
2023-03-23T19:06:15.218Z,5.7
2023-03-23T19:11:21.458Z,5.6
2023-03-23T19:16:27.662Z,5.7
2023-03-23T19:21:34.079Z,5.7
2023-03-23T19:26:39.810Z,5.8
2023-03-23T19:31:46.457Z,5.6
2023-03-23T19:36:56.172Z,5.5
2023-03-23T19:41:58.216Z,5.3
2023-03-23T19:47:04.389Z,5.2
2023-03-23T19:52:12.348Z,5.3
2023-03-23T19:57:16.667Z,5.1
2023-03-23T20:02:22.951Z,5.2
2023-03-23T20:07:28.994Z,5.5
2023-03-23T20:12:35.478Z,5.6
2023-03-23T20:17:41.222Z,5.6
2023-03-23T20:22:48.093Z,5.3
2023-03-23T20:27:54.980Z,5.2
2023-03-23T20:32:59.669Z,5.2
2023-03-23T20:38:05.713Z,5.1
2023-03-23T20:43:11.888Z,5.2
2023-03-23T20:48:18.001Z,5.1
2023-03-23T20:53:24.153Z,5.1
2023-03-23T20:58:30.287Z,5
2023-03-23T21:03:37.443Z,5.2
2023-03-23T21:08:42.593Z,5.6
2023-03-23T21:13:48.733Z,5.7
2023-03-23T21:19:35.066Z,6
2023-03-23T21:24:01.056Z,5.7
2023-03-23T21:29:07.168Z,5.4
2023-03-23T21:34:13.249Z,5.4
2023-03-23T21:39:20.122Z,5.8
2023-03-23T21:44:25.547Z,5.6
2023-03-23T21:49:31.759Z,5.6
2023-03-23T21:54:37.815Z,5.5
2023-03-23T21:59:44.088Z,5.4
2023-03-23T22:04:50.117Z,5.7
2023-03-23T22:09:56.252Z,5.7
2023-03-23T22:15:02.426Z,5.6
2023-03-23T22:20:08.579Z,5.9
2023-03-23T22:25:14.674Z,6.1
2023-03-23T22:30:20.793Z,6.5
2023-03-23T22:35:26.959Z,6.3
2023-03-23T22:40:33.101Z,6.2
2023-03-23T22:45:39.265Z,6.2
2023-03-23T22:50:45.465Z,6
2023-03-23T22:55:51.515Z,5.7
2023-03-23T23:00:57.692Z,5.2
2023-03-23T23:06:03.799Z,5
2023-03-23T23:11:09.943Z,5.2
2023-03-23T23:16:16.138Z,5.3
2023-03-23T23:21:22.209Z,5.2
2023-03-23T23:26:28.406Z,5
2023-03-23T23:31:34.609Z,5.1
2023-03-23T23:36:40.843Z,5.1
2023-03-23T23:41:46.807Z,5.1
2023-03-23T23:46:52.935Z,5.1
2023-03-23T23:51:59.073Z,5.1
2023-03-23T23:57:05.263Z,5
